createdAt,value
2022-09-06T00:00:30.802Z,12.44
2022-09-06T00:05:35.420Z,12.34
2022-09-06T00:10:40.516Z,12.28
2022-09-06T00:15:47.223Z,12.32
2022-09-06T00:20:51.663Z,12.23
2022-09-06T00:26:04.500Z,12.23
2022-09-06T00:31:16.570Z,12.20
2022-09-06T00:36:22.001Z,12.19
2022-09-06T00:41:26.493Z,12.21
2022-09-06T00:46:33.674Z,12.15
2022-09-06T00:51:40.378Z,12.10
2022-09-06T00:56:46.561Z,12.05
2022-09-06T01:01:53.001Z,11.97
2022-09-06T01:07:07.571Z,11.92
2022-09-06T01:12:26.286Z,11.91
2022-09-06T01:17:43.680Z,11.78
2022-09-06T01:23:21.830Z,11.79
2022-09-06T01:28:46.688Z,11.81
2022-09-06T01:34:00.439Z,11.82
2022-09-06T01:39:05.632Z,11.77
2022-09-06T01:44:11.155Z,11.66
2022-09-06T01:49:27.539Z,11.66
2022-09-06T01:54:46.306Z,11.54
2022-09-06T02:00:06.587Z,11.48
2022-09-06T02:05:25.660Z,11.34
2022-09-06T02:10:35.737Z,11.47
2022-09-06T02:15:46.667Z,11.37
2022-09-06T02:20:55.458Z,11.39
2022-09-06T02:26:06.731Z,11.26
2022-09-06T02:31:18.423Z,11.25
2022-09-06T02:36:23.330Z,11.28
2022-09-06T02:41:29.725Z,11.28
2022-09-06T02:46:35.517Z,11.29
2022-09-06T02:51:40.936Z,11.23
2022-09-06T02:56:48.994Z,11.10
2022-09-06T03:01:58.096Z,11.20
2022-09-06T03:07:02.686Z,11.25
2022-09-06T03:12:07.462Z,11.16
2022-09-06T03:17:13.598Z,10.93
2022-09-06T03:22:18.538Z,11.02
2022-09-06T03:27:23.201Z,11.07
2022-09-06T03:32:29.555Z,11.03
2022-09-06T03:37:35.047Z,11.02
2022-09-06T03:42:39.328Z,10.82
2022-09-06T03:47:45.747Z,10.78
2022-09-06T03:52:50.929Z,10.76
2022-09-06T03:57:55.584Z,10.79
2022-09-06T04:03:02.341Z,10.73
2022-09-06T04:08:07.450Z,10.68
2022-09-06T04:13:12.223Z,10.66
2022-09-06T04:18:19.219Z,10.71
2022-09-06T04:23:24.785Z,10.73
2022-09-06T04:28:30.159Z,10.63
2022-09-06T04:33:38.486Z,10.49
2022-09-06T04:38:44.086Z,10.51
2022-09-06T04:43:48.319Z,10.50
2022-09-06T04:48:56.475Z,10.54
2022-09-06T04:54:00.992Z,10.85
2022-09-06T04:59:05.217Z,11.12
2022-09-06T05:04:11.329Z,11.26
2022-09-06T05:09:15.765Z,11.18
2022-09-06T05:14:20.045Z,11.32
2022-09-06T05:19:25.990Z,11.54
2022-09-06T05:24:30.240Z,11.68
2022-09-06T05:29:35.090Z,11.84
2022-09-06T05:34:41.578Z,11.95
2022-09-06T05:39:45.953Z,12.13
2022-09-06T05:44:50.384Z,12.26
2022-09-06T05:49:57.343Z,12.40
2022-09-06T05:55:01.865Z,12.63
2022-09-06T06:00:07.587Z,12.91
2022-09-06T06:05:18.088Z,12.94
2022-09-06T06:10:22.529Z,13.42
2022-09-06T06:15:26.863Z,13.76
2022-09-06T06:20:32.727Z,14.30
2022-09-06T06:25:37.443Z,14.92
2022-09-06T06:30:42.343Z,15.29
2022-09-06T06:36:03.860Z,15.68
2022-09-06T06:41:10.100Z,16.95
2022-09-06T06:46:16.521Z,16.88
2022-09-06T06:51:24.259Z,16.81
2022-09-06T06:56:30.286Z,16.95
2022-09-06T07:01:36.749Z,16.88
2022-09-06T07:12:19.132Z,18.56
2022-09-06T07:17:23.569Z,19.29
2022-09-06T07:22:29.673Z,19.24
2022-09-06T07:27:50.138Z,19.35
2022-09-06T07:32:55.570Z,18.91
2022-09-06T07:38:03.300Z,18.53
2022-09-06T07:43:07.446Z,18.47
2022-09-06T07:48:11.739Z,18.24
2022-09-06T07:53:24.795Z,18.14
2022-09-06T07:58:37.064Z,17.92
2022-09-06T08:03:41.925Z,18.11
2022-09-06T08:09:03.713Z,18.37
2022-09-06T08:14:10.470Z,17.99
2022-09-06T08:19:15.304Z,18.23
2022-09-06T08:24:21.816Z,19.27
2022-09-06T08:29:27.768Z,19.91
2022-09-06T08:34:32.271Z,19.97
2022-09-06T08:39:38.788Z,20.57
2022-09-06T08:44:56.947Z,21.07
2022-09-06T08:50:07.203Z,20.92
2022-09-06T08:55:28.698Z,21.28
2022-09-06T09:00:35.172Z,21.86
2022-09-06T09:05:41.698Z,21.73
2022-09-06T09:10:51.204Z,21.66
2022-09-06T09:15:55.491Z,21.48
2022-09-06T09:21:00.810Z,20.41
2022-09-06T09:26:12.637Z,20.17
2022-09-06T09:31:35.434Z,20.88
2022-09-06T09:36:41.464Z,21.38
2022-09-06T09:41:53.099Z,21.98
2022-09-06T09:46:57.552Z,23.03
2022-09-06T09:52:12.318Z,22.16
2022-09-06T09:57:20.256Z,22.35
2022-09-06T10:02:28.879Z,21.34
2022-09-06T10:07:35.333Z,21.89
2022-09-06T10:12:43.500Z,21.81
2022-09-06T10:17:51.713Z,21.94
2022-09-06T10:23:03.396Z,21.78
2022-09-06T10:28:36.655Z,21.48
2022-09-06T10:33:53.751Z,21.47
2022-09-06T10:39:04.070Z,22.15
2022-09-06T10:44:24.765Z,23.12
2022-09-06T10:49:30.058Z,22.39
2022-09-06T10:54:36.924Z,22.31
2022-09-06T10:59:51.882Z,22.64
2022-09-06T11:10:32.836Z,23.11
2022-09-06T11:15:45.459Z,23.79
2022-09-06T11:21:05.101Z,23.17
2022-09-06T11:26:17.421Z,22.75
2022-09-06T11:36:53.817Z,23.55
2022-09-06T11:41:59.792Z,23.39
2022-09-06T11:47:08.136Z,23.50
2022-09-06T11:52:59.551Z,24.45
2022-09-06T11:58:07.633Z,24.50
2022-09-06T12:04:06.788Z,23.00
2022-09-06T12:09:35.747Z,24.19
2022-09-06T12:14:41.726Z,25.12
2022-09-06T12:19:52.096Z,24.93
2022-09-06T12:25:00.158Z,24.89
2022-09-06T12:30:08.330Z,24.39
2022-09-06T12:40:49.494Z,24.94
2022-09-06T12:45:54.623Z,24.87
2022-09-06T12:51:05.650Z,24.38
2022-09-06T12:56:13.507Z,24.29
2022-09-06T13:01:24.206Z,23.49
2022-09-06T13:06:37.366Z,23.63
2022-09-06T13:11:46.876Z,24.23
2022-09-06T13:16:53.721Z,24.65
2022-09-06T13:22:02.931Z,25.02
2022-09-06T13:27:28.779Z,24.63
2022-09-06T13:32:33.921Z,24.33
2022-09-06T13:37:42.349Z,24.60
2022-09-06T13:42:46.850Z,24.38
2022-09-06T13:47:59.918Z,25.17
2022-09-06T13:53:22.969Z,25.87
2022-09-06T13:58:30.314Z,24.48
2022-09-06T14:03:36.689Z,24.23
2022-09-06T14:09:05.669Z,23.86
2022-09-06T14:14:10.116Z,23.16
2022-09-06T14:19:14.839Z,23.48
2022-09-06T14:24:20.951Z,24.29
2022-09-06T14:29:25.581Z,25.26
2022-09-06T14:34:30.088Z,25.33
2022-09-06T14:39:36.262Z,24.67
2022-09-06T14:44:41.475Z,24.54
2022-09-06T14:49:46.188Z,24.98
2022-09-06T14:54:52.468Z,25.91
2022-09-06T14:59:57.067Z,24.58
2022-09-06T15:05:01.520Z,22.82
2022-09-06T15:10:09.730Z,22.23
2022-09-06T15:15:14.382Z,22.22
2022-09-06T15:20:19.125Z,21.95
2022-09-06T15:25:25.516Z,21.90
2022-09-06T15:30:30.203Z,22.16
2022-09-06T15:35:34.785Z,22.06
2022-09-06T15:40:40.967Z,22.11
2022-09-06T15:45:49.710Z,21.92
2022-09-06T15:50:54.727Z,21.65
2022-09-06T15:56:03.086Z,21.19
2022-09-06T16:01:10.789Z,21.13
2022-09-06T16:06:25.350Z,21.08
2022-09-06T16:11:36.031Z,20.47
2022-09-06T16:16:42.003Z,20.39
2022-09-06T16:21:46.739Z,20.12
2022-09-06T16:26:52.790Z,19.98
2022-09-06T16:32:00.078Z,19.88
2022-09-06T16:37:08.163Z,19.56
2022-09-06T16:42:15.132Z,19.41
2022-09-06T16:47:19.908Z,19.36
2022-09-06T16:52:24.571Z,19.24
2022-09-06T16:57:31.054Z,18.92
2022-09-06T17:02:35.821Z,18.91
2022-09-06T17:07:40.382Z,18.57
2022-09-06T17:12:46.912Z,18.42
2022-09-06T17:17:51.587Z,18.19
2022-09-06T17:22:56.014Z,18.18
2022-09-06T17:28:02.484Z,18.08
2022-09-06T17:33:07.151Z,17.98
2022-09-06T17:38:12.385Z,17.90
2022-09-06T17:43:18.632Z,17.86
2022-09-06T17:48:23.113Z,17.66
2022-09-06T17:53:28.119Z,17.40
2022-09-06T17:58:34.990Z,17.22
2022-09-06T18:03:42.354Z,16.91
2022-09-06T18:08:47.157Z,16.89
2022-09-06T18:13:59.867Z,16.88
2022-09-06T18:19:06.289Z,16.75
2022-09-06T18:24:14.026Z,16.72
2022-09-06T18:29:21.026Z,16.62
2022-09-06T18:34:25.700Z,16.77
2022-09-06T18:39:30.508Z,16.30
2022-09-06T18:44:36.641Z,16.34
2022-09-06T18:49:44.166Z,16.23
2022-09-06T18:54:49.938Z,16.12
2022-09-06T18:59:56.454Z,16.11
2022-09-06T19:05:00.855Z,15.91
2022-09-06T19:10:06.308Z,15.82
2022-09-06T19:15:13.806Z,15.80
2022-09-06T19:20:18.497Z,15.60
2022-09-06T19:25:23.267Z,15.54
2022-09-06T19:30:29.818Z,15.36
2022-09-06T19:35:47.092Z,15.39
2022-09-06T19:41:05.489Z,15.25
2022-09-06T19:46:13.255Z,15.23
2022-09-06T19:51:20.639Z,15.22
2022-09-06T19:56:28.305Z,15.09
2022-09-06T20:01:37.260Z,14.85
2022-09-06T20:06:41.920Z,14.87
2022-09-06T20:11:46.751Z,14.74
2022-09-06T20:16:53.162Z,14.68
2022-09-06T20:22:00.713Z,14.65
2022-09-06T20:27:06.179Z,14.52
2022-09-06T20:32:14.853Z,14.50
2022-09-06T20:37:18.999Z,14.32
2022-09-06T20:42:23.645Z,14.36
2022-09-06T20:47:30.196Z,14.19
2022-09-06T20:52:35.331Z,14.02
2022-09-06T20:57:40.112Z,14.04
2022-09-06T21:02:46.699Z,13.96
2022-09-06T21:07:51.768Z,13.86
2022-09-06T21:12:56.229Z,13.76
2022-09-06T21:18:03.496Z,13.85
2022-09-06T21:23:08.395Z,13.95
2022-09-06T21:28:12.967Z,14.00
2022-09-06T21:33:18.844Z,14.14
2022-09-06T21:38:23.562Z,14.16
2022-09-06T21:43:28.496Z,14.08
2022-09-06T21:48:38.548Z,13.81
2022-09-06T21:53:44.502Z,13.77
2022-09-06T21:58:52.376Z,13.83
2022-09-06T22:03:58.878Z,13.67
2022-09-06T22:09:05.425Z,13.48
2022-09-06T22:14:12.752Z,13.45
2022-09-06T22:19:18.944Z,13.49
2022-09-06T22:24:23.640Z,13.46
2022-09-06T22:29:28.753Z,13.51
2022-09-06T22:34:34.855Z,13.39
2022-09-06T22:39:39.527Z,13.25
2022-09-06T22:44:44.367Z,13.38
2022-09-06T22:49:50.385Z,13.26
2022-09-06T22:54:55.017Z,13.24
2022-09-06T23:00:00.362Z,13.24
2022-09-06T23:05:07.782Z,13.04
2022-09-06T23:10:12.454Z,13.11
2022-09-06T23:15:17.072Z,13.14
2022-09-06T23:20:22.849Z,13.32
2022-09-06T23:25:27.341Z,13.41
2022-09-06T23:30:32.205Z,13.43
2022-09-06T23:35:39.788Z,13.19
2022-09-06T23:40:44.220Z,13.27
2022-09-06T23:45:48.756Z,13.27
2022-09-06T23:50:55.371Z,13.17
2022-09-06T23:56:00.520Z,13.09
